createdAt,value
2022-12-12T00:00:24.641Z,8.77
2022-12-12T00:02:51.023Z,9.23
2022-12-12T00:05:18.049Z,8.83
2022-12-12T00:07:44.823Z,7.67
2022-12-12T00:10:11.526Z,11.17
2022-12-12T00:12:37.818Z,8.43
2022-12-12T00:15:04.487Z,9.57
2022-12-12T00:17:30.768Z,9.60
2022-12-12T00:19:57.037Z,7.60
2022-12-12T00:22:23.316Z,8.03
2022-12-12T00:24:49.688Z,9.37
2022-12-12T00:27:15.966Z,9.00
2022-12-12T00:29:42.223Z,9.07
2022-12-12T00:32:08.508Z,9.37
2022-12-12T00:34:34.847Z,9.23
2022-12-12T00:37:01.210Z,7.77
2022-12-12T00:39:27.482Z,9.40
2022-12-12T00:41:54.510Z,9.30
2022-12-12T00:44:20.838Z,7.80
2022-12-12T00:46:47.234Z,9.37
2022-12-12T00:49:14.515Z,9.97
2022-12-12T00:51:40.795Z,8.30
2022-12-12T00:54:07.070Z,10.13
2022-12-12T00:56:33.491Z,9.27
2022-12-12T00:59:01.428Z,9.53
2022-12-12T01:01:29.534Z,8.70
2022-12-12T01:03:56.106Z,9.20
2022-12-12T01:06:22.905Z,8.13
2022-12-12T01:08:49.252Z,8.63
2022-12-12T01:11:15.703Z,9.27
2022-12-12T01:13:42.755Z,9.37
2022-12-12T01:16:09.533Z,9.33
2022-12-12T01:18:36.382Z,8.30
2022-12-12T01:21:03.529Z,9.40
2022-12-12T01:23:29.879Z,8.90
2022-12-12T01:25:59.961Z,8.73
2022-12-12T01:28:26.226Z,8.80
2022-12-12T01:30:52.485Z,7.93
2022-12-12T01:33:19.703Z,9.17
2022-12-12T01:35:45.974Z,8.87
2022-12-12T01:38:12.261Z,8.23
2022-12-12T01:40:38.546Z,8.33
2022-12-12T01:43:06.457Z,8.80
2022-12-12T01:45:51.662Z,7.90
2022-12-12T01:48:18.988Z,9.77
2022-12-12T01:50:45.709Z,8.37
2022-12-12T01:53:13.481Z,8.80
2022-12-12T01:55:39.855Z,8.57
2022-12-12T01:58:06.134Z,9.87
2022-12-12T02:00:32.481Z,10.37
2022-12-12T02:02:58.870Z,10.20
2022-12-12T02:05:28.849Z,9.07
2022-12-12T02:07:55.311Z,9.23
2022-12-12T02:10:21.714Z,8.93
2022-12-12T02:12:48.036Z,7.13
2022-12-12T02:15:14.628Z,8.87
2022-12-12T02:17:50.534Z,10.70
2022-12-12T02:20:19.601Z,9.83
2022-12-12T02:22:47.564Z,9.03
2022-12-12T02:25:22.959Z,9.90
2022-12-12T02:27:52.283Z,8.67
2022-12-12T02:30:31.689Z,8.77
2022-12-12T02:33:06.795Z,8.47
2022-12-12T02:38:04.893Z,7.67
2022-12-12T02:40:38.481Z,11.77
2022-12-12T02:43:13.731Z,9.70
2022-12-12T02:45:48.453Z,8.30
2022-12-12T02:48:24.541Z,7.35
2022-12-12T02:50:51.677Z,7.27
2022-12-12T02:53:18.693Z,7.27
2022-12-12T02:55:45.022Z,8.63
2022-12-12T02:58:12.245Z,6.63
2022-12-12T03:00:45.994Z,7.53
2022-12-12T03:03:49.746Z,8.33
2022-12-12T03:06:41.254Z,9.50
2022-12-12T03:09:28.123Z,8.23
2022-12-12T03:12:01.486Z,8.33
2022-12-12T03:14:38.773Z,9.50
2022-12-12T03:17:17.585Z,8.17
2022-12-12T03:19:46.290Z,8.13
2022-12-12T03:22:28.985Z,10.03
2022-12-12T03:25:00.862Z,7.33
2022-12-12T03:27:30.374Z,9.00
2022-12-12T03:29:59.661Z,8.53
2022-12-12T03:32:28.753Z,7.63
2022-12-12T03:35:07.032Z,7.60
2022-12-12T03:37:39.250Z,8.43
2022-12-12T03:40:07.614Z,7.53
2022-12-12T03:42:36.678Z,8.07
2022-12-12T03:45:06.175Z,9.00
2022-12-12T03:47:35.297Z,8.83
2022-12-12T03:50:08.151Z,7.47
2022-12-12T03:52:40.592Z,9.23
2022-12-12T03:55:16.458Z,9.90
2022-12-12T03:57:46.625Z,8.17
2022-12-12T04:00:15.145Z,8.77
2022-12-12T04:02:44.889Z,7.77
2022-12-12T04:05:23.433Z,8.90
2022-12-12T04:07:58.501Z,9.00
2022-12-12T04:13:21.381Z,7.97
2022-12-12T04:15:51.782Z,8.03
2022-12-12T04:18:36.927Z,7.70
2022-12-12T04:21:50.758Z,7.68
2022-12-12T04:24:23.065Z,8.07
2022-12-12T04:26:52.721Z,5.63
2022-12-12T04:29:18.987Z,8.20
2022-12-12T04:31:54.632Z,6.33
2022-12-12T04:34:25.075Z,7.50
2022-12-12T04:36:52.199Z,7.03
2022-12-12T04:39:20.046Z,7.60
2022-12-12T04:41:47.709Z,8.47
2022-12-12T04:44:15.042Z,6.97
2022-12-12T04:46:41.964Z,7.43
2022-12-12T04:49:13.468Z,8.90
2022-12-12T04:51:44.379Z,8.00
2022-12-12T04:54:21.403Z,7.93
2022-12-12T04:56:51.020Z,8.03
2022-12-12T04:59:17.333Z,7.60
2022-12-12T05:01:53.584Z,5.80
2022-12-12T05:04:38.667Z,8.77
2022-12-12T05:07:09.138Z,7.20
2022-12-12T05:09:35.625Z,6.97
2022-12-12T05:12:01.975Z,7.70
2022-12-12T05:14:29.683Z,8.73
2022-12-12T05:16:58.672Z,9.53
2022-12-12T05:19:25.115Z,8.20
2022-12-12T05:21:51.412Z,8.03
2022-12-12T05:24:17.921Z,7.50
2022-12-12T05:26:44.257Z,7.73
2022-12-12T05:29:10.898Z,9.00
2022-12-12T05:31:37.185Z,6.17
2022-12-12T05:34:04.111Z,7.20
2022-12-12T05:36:30.425Z,6.87
2022-12-12T05:38:56.749Z,7.00
2022-12-12T05:41:23.186Z,8.00
2022-12-12T05:43:49.480Z,7.03
2022-12-12T05:46:15.886Z,7.47
2022-12-12T05:48:42.303Z,7.80
2022-12-12T05:51:08.632Z,8.30
2022-12-12T05:53:42.302Z,8.03
2022-12-12T05:56:11.302Z,7.22
2022-12-12T05:58:37.771Z,8.13
2022-12-12T06:01:05.054Z,7.40
2022-12-12T06:03:31.838Z,7.20
2022-12-12T06:05:58.171Z,7.80
2022-12-12T06:08:25.265Z,6.17
2022-12-12T06:10:51.857Z,8.63
2022-12-12T06:13:18.292Z,7.93
2022-12-12T06:15:44.590Z,7.63
2022-12-12T06:18:12.226Z,7.13
2022-12-12T06:20:38.613Z,7.53
2022-12-12T06:23:05.223Z,8.80
2022-12-12T06:25:31.537Z,7.63
2022-12-12T06:27:59.239Z,8.83
2022-12-12T06:30:25.689Z,8.67
2022-12-12T06:32:51.959Z,7.60
2022-12-12T06:35:18.376Z,7.57
2022-12-12T06:37:44.688Z,7.17
2022-12-12T06:40:11.442Z,8.67
2022-12-12T06:42:38.595Z,7.23
2022-12-12T06:45:07.371Z,9.67
2022-12-12T06:47:33.665Z,8.13
2022-12-12T06:49:59.931Z,6.80
2022-12-12T06:52:26.298Z,6.93
2022-12-12T06:54:52.697Z,7.97
2022-12-12T06:57:19.000Z,6.93
2022-12-12T06:59:45.296Z,6.83
2022-12-12T07:02:12.284Z,7.73
2022-12-12T07:04:38.656Z,6.50
2022-12-12T07:07:04.966Z,7.90
2022-12-12T07:09:31.405Z,7.70
2022-12-12T07:11:57.776Z,6.37
2022-12-12T07:14:24.070Z,5.37
2022-12-12T07:16:50.528Z,5.67
2022-12-12T07:19:16.868Z,6.10
2022-12-12T07:21:43.166Z,6.77
2022-12-12T07:24:09.627Z,7.40
2022-12-12T07:26:36.069Z,5.80
2022-12-12T07:29:05.240Z,4.53
2022-12-12T07:31:31.658Z,4.90
2022-12-12T07:33:58.011Z,5.63
2022-12-12T07:36:24.353Z,4.63
2022-12-12T07:38:50.669Z,5.23
2022-12-12T07:41:18.646Z,4.80
2022-12-12T07:43:45.981Z,5.43
2022-12-12T07:46:14.153Z,4.73
2022-12-12T07:48:40.506Z,4.53
2022-12-12T07:51:06.809Z,4.97
2022-12-12T07:53:33.103Z,4.67
2022-12-12T07:55:59.494Z,4.83
2022-12-12T07:58:25.827Z,4.30
2022-12-12T08:00:52.197Z,3.10
2022-12-12T08:03:18.469Z,4.63
2022-12-12T08:05:44.825Z,5.50
2022-12-12T08:08:11.456Z,4.80
2022-12-12T08:10:38.874Z,5.03
2022-12-12T08:13:05.156Z,5.47
2022-12-12T08:15:31.477Z,4.43
2022-12-12T08:17:57.763Z,5.63
2022-12-12T08:20:24.051Z,6.20
2022-12-12T08:22:50.428Z,4.57
2022-12-12T08:25:17.073Z,4.60
2022-12-12T08:27:43.441Z,6.20
2022-12-12T08:30:09.944Z,6.43
2022-12-12T08:32:36.690Z,7.73
2022-12-12T08:35:03.609Z,3.97
2022-12-12T08:37:30.104Z,4.57
2022-12-12T08:39:56.419Z,4.07
2022-12-12T08:42:22.753Z,5.63
2022-12-12T08:44:49.334Z,5.50
2022-12-12T08:47:15.705Z,4.37
2022-12-12T08:49:42.019Z,5.03
2022-12-12T08:52:09.935Z,4.50
2022-12-12T08:54:36.984Z,6.07
2022-12-12T08:57:03.789Z,4.80
2022-12-12T08:59:30.177Z,5.47
2022-12-12T09:01:56.592Z,5.60
2022-12-12T09:04:22.932Z,4.33
2022-12-12T09:06:49.293Z,5.03
2022-12-12T09:09:15.625Z,6.00
2022-12-12T09:11:41.980Z,4.57
2022-12-12T09:14:08.339Z,5.77
2022-12-12T09:16:34.802Z,5.57
2022-12-12T09:19:01.118Z,7.67
2022-12-12T09:21:27.369Z,4.30
2022-12-12T09:23:53.696Z,4.37
2022-12-12T09:26:20.077Z,6.20
2022-12-12T09:28:46.448Z,5.77
2022-12-12T09:31:13.112Z,6.17
2022-12-12T09:33:39.770Z,6.03
2022-12-12T09:36:07.417Z,4.53
2022-12-12T09:38:34.090Z,5.00
2022-12-12T09:41:09.266Z,4.53
2022-12-12T09:43:56.282Z,6.33
2022-12-12T09:46:31.951Z,6.33
2022-12-12T09:49:07.349Z,7.80
2022-12-12T09:51:34.956Z,5.27
2022-12-12T09:54:01.395Z,4.43
2022-12-12T09:56:31.607Z,5.60
2022-12-12T09:59:16.887Z,6.33
2022-12-12T10:01:55.911Z,5.45
2022-12-12T10:04:34.035Z,5.90
2022-12-12T10:07:19.311Z,5.13
2022-12-12T10:09:57.372Z,9.02
2022-12-12T10:12:24.678Z,6.73
2022-12-12T10:14:56.427Z,5.13
2022-12-12T10:17:22.738Z,6.10
2022-12-12T10:19:50.582Z,6.50
2022-12-12T10:22:32.244Z,5.47
2022-12-12T10:25:08.345Z,6.30
2022-12-12T10:27:34.698Z,5.53
2022-12-12T10:30:07.171Z,5.67
2022-12-12T10:32:40.208Z,5.67
2022-12-12T10:35:18.780Z,5.77
2022-12-12T10:38:01.806Z,4.27
2022-12-12T10:40:49.131Z,5.03
2022-12-12T10:43:44.802Z,4.20
2022-12-12T10:46:17.284Z,4.88
2022-12-12T10:48:44.308Z,4.50
2022-12-12T10:51:12.217Z,6.30
2022-12-12T10:53:40.428Z,4.07
2022-12-12T10:56:08.739Z,8.17
2022-12-12T10:58:37.536Z,6.73
2022-12-12T11:01:05.229Z,5.10
2022-12-12T11:03:40.909Z,5.47
2022-12-12T11:06:10.464Z,4.43
2022-12-12T11:08:37.623Z,5.67
2022-12-12T11:11:06.606Z,4.43
2022-12-12T11:13:38.729Z,5.10
2022-12-12T11:16:13.729Z,5.03
2022-12-12T11:18:40.224Z,5.40
2022-12-12T11:21:08.544Z,3.47
2022-12-12T11:23:35.965Z,6.00
2022-12-12T11:26:13.143Z,5.23
2022-12-12T11:28:40.617Z,5.97
2022-12-12T11:31:09.611Z,4.57
2022-12-12T11:33:46.135Z,7.80
2022-12-12T11:36:16.710Z,6.67
2022-12-12T11:38:50.194Z,6.87
2022-12-12T11:41:16.536Z,5.77
2022-12-12T11:43:45.616Z,6.23
2022-12-12T11:46:14.786Z,6.63
2022-12-12T11:48:43.689Z,5.27
2022-12-12T11:51:10.764Z,5.27
2022-12-12T11:53:40.980Z,5.67
2022-12-12T11:56:13.493Z,7.30
2022-12-12T11:58:46.142Z,7.70
2022-12-12T12:01:24.654Z,6.20
2022-12-12T12:04:00.139Z,5.80
2022-12-12T12:06:37.071Z,6.63
2022-12-12T12:09:22.468Z,7.37
2022-12-12T12:11:48.741Z,4.75
2022-12-12T12:14:24.482Z,6.17
2022-12-12T12:16:50.798Z,7.27
2022-12-12T12:19:23.041Z,5.77
2022-12-12T12:21:52.159Z,6.03
2022-12-12T12:24:32.129Z,5.80
2022-12-12T12:27:17.311Z,4.40
2022-12-12T12:29:53.557Z,6.03
2022-12-12T12:32:31.988Z,5.57
2022-12-12T12:35:04.097Z,5.90
2022-12-12T12:37:36.295Z,5.97
2022-12-12T12:40:21.260Z,5.63
2022-12-12T12:42:49.897Z,3.90
2022-12-12T12:45:16.641Z,5.17
2022-12-12T12:47:49.400Z,6.30
2022-12-12T12:50:24.310Z,5.57
2022-12-12T12:52:51.613Z,5.13
2022-12-12T12:55:21.266Z,5.43
2022-12-12T12:57:48.645Z,6.07
2022-12-12T13:00:16.949Z,7.43
2022-12-12T13:03:01.214Z,4.93
2022-12-12T13:05:33.559Z,4.50
2022-12-12T13:08:12.829Z,5.33
2022-12-12T13:10:41.757Z,6.60
2022-12-12T13:13:26.961Z,5.97
2022-12-12T13:16:01.258Z,5.93
2022-12-12T13:18:37.059Z,4.82
2022-12-12T13:21:15.630Z,5.73
2022-12-12T13:23:47.730Z,6.30
2022-12-12T13:26:16.894Z,6.40
2022-12-12T13:28:49.261Z,5.87
2022-12-12T13:31:22.530Z,5.23
2022-12-12T13:33:50.569Z,5.50
2022-12-12T13:36:30.162Z,8.53
2022-12-12T13:38:58.134Z,4.67
2022-12-12T13:41:24.584Z,5.23
2022-12-12T13:43:59.944Z,6.13
2022-12-12T13:46:29.172Z,5.60
2022-12-12T13:49:01.317Z,6.47
2022-12-12T13:51:27.774Z,6.07
2022-12-12T13:54:13.648Z,5.13
2022-12-12T13:56:40.865Z,4.57
2022-12-12T13:59:22.470Z,5.47
2022-12-12T14:01:49.948Z,7.53
2022-12-12T14:04:36.056Z,8.77
2022-12-12T14:07:13.406Z,6.87
2022-12-12T14:09:50.723Z,7.50
2022-12-12T14:12:19.505Z,5.10
2022-12-12T14:14:53.499Z,6.10
2022-12-12T14:17:21.257Z,4.57
2022-12-12T14:19:50.783Z,6.07
2022-12-12T14:22:29.292Z,3.43
2022-12-12T14:25:21.968Z,4.93
2022-12-12T14:27:49.062Z,4.40
2022-12-12T14:30:21.614Z,4.97
2022-12-12T14:32:57.120Z,4.83
2022-12-12T14:35:44.252Z,5.60
2022-12-12T14:38:29.401Z,4.63
2022-12-12T14:40:59.119Z,4.40
2022-12-12T14:43:27.944Z,4.47
2022-12-12T14:45:58.007Z,4.63
2022-12-12T14:48:28.711Z,5.27
2022-12-12T14:51:03.913Z,4.53
2022-12-12T14:53:39.216Z,4.60
2022-12-12T14:56:09.749Z,3.43
2022-12-12T14:58:38.695Z,4.83
2022-12-12T15:01:05.747Z,3.93
2022-12-12T15:03:34.803Z,4.90
2022-12-12T15:06:20.318Z,6.13
2022-12-12T15:11:17.272Z,5.17
2022-12-12T15:13:50.501Z,4.73
2022-12-12T15:16:17.237Z,5.00
2022-12-12T15:18:43.723Z,4.13
2022-12-12T15:21:10.151Z,4.93
2022-12-12T15:23:36.491Z,4.73
2022-12-12T15:26:02.825Z,5.00
2022-12-12T15:28:29.281Z,4.90
2022-12-12T15:30:55.980Z,4.83
2022-12-12T15:33:24.199Z,3.90
2022-12-12T15:36:02.885Z,5.43
2022-12-12T15:38:29.967Z,4.30
2022-12-12T15:40:59.894Z,4.17
2022-12-12T15:43:27.954Z,5.13
2022-12-12T15:45:58.250Z,4.97
2022-12-12T15:48:25.723Z,3.80
2022-12-12T15:50:57.002Z,4.97
2022-12-12T15:53:28.046Z,3.93
2022-12-12T15:55:54.351Z,4.13
2022-12-12T15:58:28.978Z,2.60
2022-12-12T16:01:20.527Z,4.80
2022-12-12T16:04:01.703Z,3.43
2022-12-12T16:06:35.531Z,4.67
2022-12-12T16:09:01.892Z,3.20
2022-12-12T16:11:36.273Z,3.00
2022-12-12T16:14:02.894Z,2.92
2022-12-12T16:16:36.824Z,3.40
2022-12-12T16:19:03.848Z,3.30
2022-12-12T16:21:30.556Z,2.97
2022-12-12T16:24:19.723Z,4.87
2022-12-12T16:26:45.981Z,4.13
2022-12-12T16:29:12.268Z,5.43
2022-12-12T16:31:38.552Z,3.53
2022-12-12T16:34:05.214Z,3.00
2022-12-12T16:36:34.528Z,4.13
2022-12-12T16:39:04.703Z,3.80
2022-12-12T16:41:31.041Z,3.90
2022-12-12T16:43:57.347Z,4.13
2022-12-12T16:46:25.028Z,2.93
2022-12-12T16:48:51.751Z,4.57
2022-12-12T16:51:20.552Z,5.87
2022-12-12T16:53:46.832Z,3.47
2022-12-12T16:56:13.109Z,4.63
2022-12-12T16:58:39.471Z,4.50
2022-12-12T17:01:06.175Z,4.80
2022-12-12T17:03:32.843Z,3.83
2022-12-12T17:05:59.642Z,4.67
2022-12-12T17:08:26.270Z,3.87
2022-12-12T17:10:53.434Z,3.50
2022-12-12T17:13:37.773Z,4.00
2022-12-12T17:16:04.168Z,5.77
2022-12-12T17:18:30.511Z,3.40
2022-12-12T17:20:56.927Z,5.17
2022-12-12T17:23:29.681Z,3.60
2022-12-12T17:26:03.068Z,3.80
2022-12-12T17:28:30.879Z,4.10
2022-12-12T17:30:57.252Z,3.33
2022-12-12T17:33:23.545Z,3.70
2022-12-12T17:36:03.818Z,3.23
2022-12-12T17:38:30.917Z,2.80
2022-12-12T17:40:57.624Z,3.60
2022-12-12T17:43:24.682Z,3.67
2022-12-12T17:46:00.920Z,4.43
2022-12-12T17:48:28.138Z,4.13
2022-12-12T17:51:01.932Z,4.70
2022-12-12T17:53:32.638Z,4.70
2022-12-12T17:56:01.503Z,3.57
2022-12-12T17:58:34.159Z,5.95
2022-12-12T18:01:00.937Z,3.27
2022-12-12T18:03:27.286Z,3.90
2022-12-12T18:05:53.615Z,3.33
2022-12-12T18:08:19.989Z,4.03
2022-12-12T18:10:46.347Z,7.90
2022-12-12T18:13:13.078Z,5.33
2022-12-12T18:15:41.307Z,5.27
2022-12-12T18:18:07.749Z,5.43
2022-12-12T18:20:34.242Z,5.03
2022-12-12T18:23:00.577Z,5.60
2022-12-12T18:25:26.876Z,4.20
2022-12-12T18:27:53.285Z,4.20
2022-12-12T18:30:19.568Z,4.83
2022-12-12T18:32:46.236Z,4.67
2022-12-12T18:35:12.547Z,4.23
2022-12-12T18:37:38.857Z,4.43
2022-12-12T18:40:07.052Z,7.40
2022-12-12T18:42:33.454Z,4.60
2022-12-12T18:44:59.811Z,5.17
2022-12-12T18:47:26.146Z,4.63
2022-12-12T18:49:52.502Z,4.57
2022-12-12T18:52:18.786Z,4.73
2022-12-12T18:54:45.154Z,5.83
2022-12-12T18:57:11.541Z,5.30
2022-12-12T18:59:37.918Z,4.33
2022-12-12T19:02:04.411Z,4.33
2022-12-12T19:04:30.822Z,4.20
2022-12-12T19:06:58.701Z,5.13
2022-12-12T19:09:24.987Z,4.30
2022-12-12T19:11:56.889Z,6.43
2022-12-12T19:14:36.059Z,4.27
2022-12-12T19:17:14.610Z,5.37
2022-12-12T19:19:40.915Z,5.70
2022-12-12T19:22:24.775Z,4.90
2022-12-12T19:24:53.566Z,4.10
2022-12-12T19:27:19.876Z,4.30
2022-12-12T19:29:46.241Z,3.83
2022-12-12T19:32:12.606Z,4.20
2022-12-12T19:34:39.711Z,4.67
2022-12-12T19:37:06.022Z,3.40
2022-12-12T19:39:32.363Z,5.00
2022-12-12T19:41:58.663Z,3.87
2022-12-12T19:44:25.017Z,5.47
2022-12-12T19:46:51.417Z,5.27
2022-12-12T19:49:17.772Z,5.60
2022-12-12T19:51:45.581Z,5.27
2022-12-12T19:54:16.427Z,4.37
2022-12-12T19:56:42.842Z,3.73
2022-12-12T19:59:11.026Z,3.60
2022-12-12T20:01:37.377Z,4.70
2022-12-12T20:04:05.528Z,3.50
2022-12-12T20:06:41.194Z,5.17
2022-12-12T20:09:09.034Z,4.60
2022-12-12T20:11:35.449Z,4.30
2022-12-12T20:14:01.947Z,4.30
2022-12-12T20:16:28.528Z,4.07
2022-12-12T20:18:55.286Z,3.60
2022-12-12T20:21:51.689Z,3.90
2022-12-12T20:24:09.789Z,6.57
2022-12-12T20:26:36.725Z,4.50
2022-12-12T20:29:03.867Z,5.50
2022-12-12T20:31:33.073Z,5.17
2022-12-12T20:34:00.197Z,4.27
2022-12-12T20:36:28.198Z,5.10
2022-12-12T20:38:55.255Z,4.10
2022-12-12T20:41:23.088Z,3.13
2022-12-12T20:43:49.531Z,4.70
2022-12-12T20:46:20.128Z,3.63
2022-12-12T20:48:47.097Z,3.67
2022-12-12T20:51:52.756Z,4.17
2022-12-12T20:54:04.985Z,5.10
2022-12-12T20:56:32.084Z,3.60
2022-12-12T20:58:59.920Z,4.93
2022-12-12T21:01:27.790Z,5.00
2022-12-12T21:03:54.317Z,3.80
2022-12-12T21:06:22.290Z,4.30
2022-12-12T21:08:49.006Z,3.43
2022-12-12T21:11:16.487Z,5.67
2022-12-12T21:13:43.034Z,4.90
2022-12-12T21:16:19.536Z,5.07
2022-12-12T21:18:50.227Z,3.27
2022-12-12T21:21:16.530Z,5.70
2022-12-12T21:23:42.847Z,5.97
2022-12-12T21:26:16.727Z,5.23
2022-12-12T21:28:45.562Z,5.13
2022-12-12T21:31:14.811Z,5.23
2022-12-12T21:33:41.199Z,4.47
2022-12-12T21:36:08.729Z,3.70
2022-12-12T21:38:35.298Z,6.77
2022-12-12T21:41:12.284Z,6.30
2022-12-12T21:43:38.913Z,4.27
2022-12-12T21:46:25.581Z,4.20
2022-12-12T21:49:12.437Z,4.37
2022-12-12T21:51:39.774Z,3.30
2022-12-12T21:54:06.743Z,4.50
2022-12-12T21:56:33.089Z,4.87
2022-12-12T21:58:59.714Z,4.40
2022-12-12T22:01:26.761Z,8.50
2022-12-12T22:03:53.826Z,5.97
2022-12-12T22:06:21.282Z,5.80
2022-12-12T22:08:47.960Z,5.30
2022-12-12T22:11:15.173Z,5.15
2022-12-12T22:14:01.499Z,4.47
2022-12-12T22:16:33.288Z,3.67
2022-12-12T22:19:05.316Z,4.63
2022-12-12T22:21:32.236Z,3.07
2022-12-12T22:23:59.355Z,4.10
2022-12-12T22:26:30.227Z,6.13
2022-12-12T22:28:57.681Z,5.20
2022-12-12T22:31:25.558Z,4.70
2022-12-12T22:33:59.454Z,6.00
2022-12-12T22:36:30.437Z,5.10
2022-12-12T22:38:57.151Z,6.90
2022-12-12T22:41:24.200Z,3.90
2022-12-12T22:43:54.616Z,4.17
2022-12-12T22:46:21.093Z,5.50
2022-12-12T22:48:47.513Z,4.37
2022-12-12T22:51:18.969Z,4.43
2022-12-12T22:53:45.671Z,4.57
2022-12-12T22:56:12.369Z,4.17
2022-12-12T22:58:38.692Z,3.73
2022-12-12T23:01:12.897Z,5.13
2022-12-12T23:03:39.309Z,3.38
2022-12-12T23:06:10.943Z,5.47
2022-12-12T23:08:37.364Z,5.80
2022-12-12T23:11:07.422Z,5.50
2022-12-12T23:13:34.067Z,5.77
2022-12-12T23:16:04.269Z,3.47
2022-12-12T23:18:30.664Z,5.37
2022-12-12T23:20:56.958Z,5.40
2022-12-12T23:23:23.271Z,6.17
2022-12-12T23:25:49.737Z,4.20
2022-12-12T23:28:16.065Z,6.63
2022-12-12T23:30:42.627Z,4.30
2022-12-12T23:33:09.009Z,4.47
2022-12-12T23:35:35.357Z,6.07
2022-12-12T23:38:01.655Z,4.80
2022-12-12T23:40:28.037Z,6.00
2022-12-12T23:42:54.459Z,3.40
2022-12-12T23:45:20.775Z,5.77
2022-12-12T23:47:47.221Z,4.33
2022-12-12T23:50:13.545Z,3.37
2022-12-12T23:52:39.987Z,4.43
2022-12-12T23:55:06.485Z,4.30
2022-12-12T23:57:32.818Z,4.97
2022-12-12T23:59:59.118Z,4.10
